Time;durP1;ratioP1;P1;durP2;ratioP2;P2;SDS_P1;SDS_P2;PMS_P1;PMS_P2;Temp;Humidity;BMP_temperature;BMP_pressure;BME280_temperature;BME280_humidity;BME280_pressure;Samples;Min_cycle;Max_cycle;Signal;HPM_P1;HPM_P2
2021/11/10 00:01:46;;;;;;;32.90;16.00;;;;;;;1.59;100.00;98810.66;5044745;28;20045;-80
2021/11/10 00:04:13;;;;;;;30.98;16.23;;;;;;;1.55;100.00;98804.16;5059689;28;20049;-81
2021/11/10 00:06:39;;;;;;;28.02;16.02;;;;;;;1.61;100.00;98805.91;5055997;28;20053;-80
2021/11/10 00:09:06;;;;;;;33.83;15.65;;;;;;;1.61;100.00;98814.72;5036585;28;20454;-80
2021/11/10 00:11:33;;;;;;;29.42;15.30;;;;;;;1.49;100.00;98797.06;5053256;28;20102;-79
2021/11/10 00:14:00;;;;;;;26.58;14.65;;;;;;;1.40;100.00;98804.56;5037095;28;20053;-80
2021/11/10 00:16:26;;;;;;;29.38;14.10;;;;;;;1.25;100.00;98788.16;5052520;28;20064;-81
2021/11/10 00:18:55;;;;;;;29.77;14.77;;;;;;;1.35;100.00;98796.44;5054498;28;20155;-80
2021/11/10 00:21:26;;;;;;;29.02;14.73;;;;;;;1.34;100.00;98792.16;5053410;28;20049;-79
2021/11/10 00:23:54;;;;;;;29.20;15.43;;;;;;;1.27;100.00;98792.22;5053837;28;20061;-80
2021/11/10 00:26:21;;;;;;;28.13;15.80;;;;;;;1.27;100.00;98797.56;5054576;28;20045;-81
2021/11/10 00:28:49;;;;;;;28.35;15.50;;;;;;;1.19;100.00;98787.22;5054135;28;20048;-82
2021/11/10 00:31:17;;;;;;;31.75;14.95;;;;;;;1.08;100.00;98784.50;5029019;28;20070;-80
2021/11/10 00:33:44;;;;;;;28.92;15.52;;;;;;;1.06;100.00;98790.06;5053775;28;20616;-81
2021/11/10 00:36:10;;;;;;;34.08;15.77;;;;;;;1.11;100.00;98776.06;5055005;28;20057;-80
2021/11/10 00:38:37;;;;;;;36.65;16.45;;;;;;;1.16;100.00;98773.53;5037899;28;20044;-80
2021/11/10 00:41:04;;;;;;;29.65;15.77;;;;;;;1.18;100.00;98768.78;5054917;28;20052;-80
2021/11/10 00:43:32;;;;;;;32.50;15.95;;;;;;;1.11;100.00;98770.72;5039329;28;20099;-80
2021/11/10 00:45:59;;;;;;;33.17;16.20;;;;;;;0.99;100.00;98759.19;5056635;28;20049;-81
2021/11/10 00:48:26;;;;;;;31.38;15.65;;;;;;;1.05;100.00;98763.63;5057241;28;20107;-80
2021/11/10 00:50:52;;;;;;;33.38;15.75;;;;;;;1.04;100.00;98776.13;5056873;28;20073;-80
2021/11/10 00:53:19;;;;;;;31.92;15.57;;;;;;;1.05;100.00;98759.13;5055950;28;20053;-79
2021/11/10 00:55:46;;;;;;;31.20;15.43;;;;;;;0.97;100.00;98759.44;5056603;28;20350;-81
2021/11/10 00:58:12;;;;;;;32.13;14.70;;;;;;;0.85;100.00;98753.22;5039550;28;20122;-80
2021/11/10 01:00:40;;;;;;;30.95;14.15;;;;;;;0.84;100.00;98764.09;5055516;28;20053;-81
2021/11/10 01:03:11;;;;;;;27.92;14.95;;;;;;;0.79;100.00;98739.97;5055375;28;20119;-80
2021/11/10 01:05:39;;;;;;;29.63;14.52;;;;;;;0.74;100.00;98745.19;5056747;28;20049;-80
2021/11/10 01:08:08;;;;;;;29.98;14.02;;;;;;;0.90;100.00;98750.72;5057447;28;20063;-80
2021/11/10 01:10:35;;;;;;;33.17;15.93;;;;;;;0.97;100.00;98734.63;5057118;28;20049;-81
2021/11/10 01:13:02;;;;;;;28.60;14.65;;;;;;;0.97;100.00;98734.63;5056763;28;20119;-80
2021/11/10 01:15:34;;;;;;;28.95;14.50;;;;;;;0.93;100.00;98736.91;5036537;28;20071;-79
2021/11/10 01:18:01;;;;;;;30.27;15.00;;;;;;;0.98;100.00;98721.03;5059054;28;20081;-80
2021/11/10 01:20:28;;;;;;;27.88;13.05;;;;;;;0.98;100.00;98720.25;5060436;28;20413;-80
2021/11/10 01:22:54;;;;;;;26.75;13.98;;;;;;;0.93;100.00;98728.13;5060103;28;20049;-80
2021/11/10 01:25:25;;;;;;;24.05;12.07;;;;;;;0.92;100.00;98737.97;5043013;28;20063;-80
2021/11/10 01:27:51;;;;;;;26.05;13.07;;;;;;;0.85;100.00;98715.91;5060493;28;20555;-79
2021/11/10 01:30:18;;;;;;;26.10;12.80;;;;;;;0.79;100.00;98724.81;5041667;28;20052;-80
2021/11/10 01:32:46;;;;;;;30.88;14.32;;;;;;;0.60;100.00;98728.53;5058311;28;20064;-80
2021/11/10 01:35:13;;;;;;;26.35;13.65;;;;;;;0.59;100.00;98740.25;5043007;28;20052;-80
2021/11/10 01:37:40;;;;;;;30.00;13.60;;;;;;;0.43;100.00;98735.50;5061069;28;20053;-79
2021/11/10 01:40:08;;;;;;;29.95;14.38;;;;;;;0.34;100.00;98702.22;5043805;28;20045;-79
2021/11/10 01:42:42;;;;;;;31.13;14.18;;;;;;;0.49;100.00;98716.00;5065383;28;20049;-79
2021/11/10 01:45:11;;;;;;;28.70;14.63;;;;;;;0.55;100.00;98715.88;5054480;28;20071;-78
2021/11/10 01:47:38;;;;;;;32.72;14.50;;;;;;;0.50;100.00;98690.97;5037675;28;20126;-79
2021/11/10 01:50:08;;;;;;;33.60;15.20;;;;;;;0.57;100.00;98694.34;5053488;28;20071;-79
2021/11/10 01:52:34;;;;;;;28.27;14.93;;;;;;;0.60;100.00;98691.22;5054653;28;20090;-79
2021/11/10 01:55:01;;;;;;;30.10;15.23;;;;;;;0.55;100.00;98680.44;5054484;28;20496;-78
2021/11/10 01:57:29;;;;;;;28.40;15.20;;;;;;;0.37;100.00;98683.94;5055874;28;20060;-80
2021/11/10 02:00:11;;;;;;;29.70;15.10;;;;;;;0.50;100.00;98670.47;5054950;28;20053;-78
2021/11/10 02:02:41;;;;;;;29.23;13.98;;;;;;;0.58;100.00;98664.00;5022434;28;20041;-78
2021/11/10 02:05:13;;;;;;;34.33;14.75;;;;;;;0.58;100.00;98669.34;5055674;28;20053;-79
2021/11/10 02:07:40;;;;;;;27.60;14.07;;;;;;;0.43;100.00;98671.59;5040772;28;20060;-80
2021/11/10 02:10:10;;;;;;;28.13;14.52;;;;;;;0.31;100.00;98649.44;5058882;28;20045;-79
2021/11/10 02:12:37;;;;;;;33.63;15.20;;;;;;;0.42;100.00;98661.97;5073487;28;20028;-79
2021/11/10 02:15:06;;;;;;;31.83;15.57;;;;;;;0.46;100.00;98661.31;5078521;28;20044;-80
2021/11/10 02:17:35;;;;;;;29.58;14.57;;;;;;;0.50;100.00;98657.16;5047516;28;20053;-79
2021/11/10 02:20:07;;;;;;;30.00;14.25;;;;;;;0.60;100.00;98654.75;5059586;28;20072;-79
2021/11/10 02:22:35;;;;;;;28.58;13.98;;;;;;;0.68;100.00;98658.94;5039993;28;20467;-78
2021/11/10 02:25:04;;;;;;;27.65;13.63;;;;;;;0.60;100.00;98661.94;5057566;28;20045;-80
2021/11/10 02:27:35;;;;;;;28.77;14.73;;;;;;;0.27;100.00;98672.19;5042194;28;20076;-78
2021/11/10 02:30:05;;;;;;;31.23;13.55;;;;;;;0.33;100.00;98666.00;5057138;28;20489;-79
2021/11/10 02:32:33;;;;;;;31.33;13.38;;;;;;;0.37;100.00;98669.81;5057654;28;20069;-79
2021/11/10 02:34:59;;;;;;;32.13;13.82;;;;;;;0.37;100.00;98661.81;5060336;28;20499;-79
2021/11/10 02:37:26;;;;;;;32.55;14.18;;;;;;;0.35;100.00;98653.25;5059789;28;20143;-78
2021/11/10 02:39:53;;;;;;;28.73;14.20;;;;;;;0.33;100.00;98658.81;5058623;28;20049;-79
2021/11/10 02:42:21;;;;;;;29.63;14.52;;;;;;;0.28;100.00;98666.66;5059410;28;20052;-79
2021/11/10 02:44:50;;;;;;;25.75;13.15;;;;;;;0.22;100.00;98659.56;5060991;28;20068;-80
2021/11/10 02:47:18;;;;;;;28.90;14.15;;;;;;;0.21;100.00;98665.91;5061413;28;20435;-80
2021/11/10 02:49:45;;;;;;;30.95;14.00;;;;;;;0.26;100.00;98662.59;5061582;28;20044;-79
2021/11/10 02:52:16;;;;;;;31.67;14.32;;;;;;;0.27;100.00;98682.84;5041580;28;20060;-79
2021/11/10 02:54:48;;;;;;;28.67;15.23;;;;;;;0.25;100.00;98676.94;5060930;28;20049;-80
2021/11/10 02:57:16;;;;;;;29.80;14.10;;;;;;;0.32;100.00;98665.16;5061557;28;20501;-80
2021/11/10 02:59:42;;;;;;;30.75;14.00;;;;;;;0.38;100.00;98666.94;5042462;28;20053;-80
2021/11/10 03:02:09;;;;;;;30.10;14.25;;;;;;;0.43;100.00;98671.59;5060732;28;20426;-80
2021/11/10 03:04:42;;;;;;;26.77;13.20;;;;;;;0.39;100.00;98668.56;5060029;28;20080;-80
2021/11/10 03:07:08;;;;;;;29.67;14.07;;;;;;;0.43;100.00;98676.91;5104116;22;20082;-84
2021/11/10 03:09:36;;;;;;;27.45;13.60;;;;;;;0.28;100.00;98660.53;5083295;28;20060;-86
2021/11/10 03:12:05;;;;;;;28.70;13.77;;;;;;;0.31;100.00;98652.09;5083018;28;20403;-85
2021/11/10 03:14:34;;;;;;;26.13;13.60;;;;;;;0.32;100.00;98665.16;5086365;28;20052;-84
2021/11/10 03:17:05;;;;;;;26.50;13.57;;;;;;;0.22;100.00;98654.25;5089533;28;20079;-84
2021/11/10 03:19:32;;;;;;;31.55;13.55;;;;;;;0.11;100.00;98673.59;5090774;23;20048;-81
2021/11/10 03:22:01;;;;;;;27.98;13.98;;;;;;;0.14;100.00;98667.84;5098526;28;20044;-79
2021/11/10 03:24:27;;;;;;;24.90;12.75;;;;;;;0.19;100.00;98660.00;5079975;28;20075;-83
2021/11/10 03:26:54;;;;;;;27.55;13.02;;;;;;;0.24;100.00;98676.13;5080775;28;20104;-78
2021/11/10 03:29:21;;;;;;;32.70;13.50;;;;;;;0.05;100.00;98671.84;5098529;28;20070;-81
2021/11/10 03:31:48;;;;;;;27.02;12.50;;;;;;;0.03;100.00;98681.88;5098554;28;20071;-78
2021/11/10 03:34:15;;;;;;;24.80;12.95;;;;;;;0.01;100.00;98675.97;5079965;28;20131;-80
2021/11/10 03:36:42;;;;;;;30.98;13.38;;;;;;;0.07;100.00;98675.09;5080209;28;20086;-82
2021/11/10 03:39:14;;;;;;;29.45;13.32;;;;;;;0.09;100.00;98681.00;5099485;28;20051;-79
2021/11/10 03:41:40;;;;;;;30.80;13.88;;;;;;;0.19;100.00;98685.81;5100307;28;20044;-77
2021/11/10 03:44:08;;;;;;;31.83;13.80;;;;;;;0.17;100.00;98682.56;5080586;28;20385;-82
2021/11/10 03:46:37;;;;;;;32.95;14.18;;;;;;;0.19;100.00;98683.97;5083401;28;20120;-81
2021/11/10 03:49:04;;;;;;;30.60;13.60;;;;;;;0.06;100.00;98659.34;5095518;28;20593;-83
2021/11/10 03:51:31;;;;;;;26.90;12.38;;;;;;;-0.13;100.00;98656.66;5085698;28;20514;-82
2021/11/10 03:53:58;;;;;;;22.55;11.15;;;;;;;-0.07;100.00;98668.28;5059954;28;20036;-82
2021/11/10 03:56:25;;;;;;;24.63;11.18;;;;;;;-0.16;100.00;98678.44;5059681;28;20299;-80
2021/11/10 03:58:52;;;;;;;24.88;11.68;;;;;;;-0.23;100.00;98684.81;5059279;28;20334;-81
2021/11/10 04:01:19;;;;;;;30.58;13.48;;;;;;;-0.15;100.00;98677.38;5079028;28;20052;-80
2021/11/10 04:03:46;;;;;;;30.73;13.25;;;;;;;0.02;100.00;98674.97;5059347;28;20080;-80
2021/11/10 04:06:12;;;;;;;32.17;13.23;;;;;;;0.07;100.00;98672.44;5077307;28;20048;-82
2021/11/10 04:08:39;;;;;;;28.00;13.07;;;;;;;0.12;100.00;98667.25;5078438;28;20256;-80
2021/11/10 04:11:06;;;;;;;25.27;13.07;;;;;;;0.09;100.00;98656.22;5059528;28;20052;-82
2021/11/10 04:13:33;;;;;;;27.85;13.43;;;;;;;0.06;100.00;98659.34;5079399;28;20044;-82
2021/11/10 04:16:00;;;;;;;23.88;12.20;;;;;;;-0.13;100.00;98647.91;5061404;28;20155;-81
2021/11/10 04:18:32;;;;;;;29.08;12.45;;;;;;;-0.11;100.00;98633.34;5079573;28;20423;-81
2021/11/10 04:21:00;;;;;;;25.80;13.15;;;;;;;0.08;100.00;98651.97;5061260;28;20052;-81
2021/11/10 04:23:29;;;;;;;28.92;13.88;;;;;;;0.06;100.00;98654.84;5060506;28;20454;-82
2021/11/10 04:25:56;;;;;;;29.77;12.70;;;;;;;0.05;100.00;98653.22;5079062;28;20052;-79
2021/11/10 04:28:23;;;;;;;24.88;12.02;;;;;;;0.04;100.00;98651.59;5079191;28;20052;-82
2021/11/10 04:30:51;;;;;;;28.08;13.27;;;;;;;-0.06;100.00;98644.13;5080589;28;20067;-81
2021/11/10 04:33:18;;;;;;;26.50;12.88;;;;;;;0.05;100.00;98655.06;5087075;28;20108;-80
2021/11/10 04:35:45;;;;;;;31.35;13.88;;;;;;;0.10;100.00;98644.56;5087663;28;20052;-82
2021/11/10 04:38:12;;;;;;;33.80;13.60;;;;;;;0.11;100.00;98636.34;5089363;28;20048;-83
2021/11/10 04:40:39;;;;;;;26.05;12.30;;;;;;;-0.16;100.00;98617.22;5077612;28;20064;-79
2021/11/10 04:43:05;;;;;;;23.45;11.57;;;;;;;0.07;100.00;98647.66;5059531;28;20052;-83
2021/11/10 04:45:34;;;;;;;26.35;11.38;;;;;;;-0.26;100.00;98611.59;5086471;28;20059;-80
2021/11/10 04:48:02;;;;;;;24.63;11.90;;;;;;;-0.12;100.00;98626.38;5087347;28;20325;-81
2021/11/10 04:50:29;;;;;;;30.95;12.88;;;;;;;-0.02;100.00;98649.81;5074881;28;20044;-81
2021/11/10 04:52:56;;;;;;;33.25;13.57;;;;;;;-0.05;100.00;98634.28;5086201;28;20439;-81
2021/11/10 04:55:24;;;;;;;30.55;14.00;;;;;;;-0.03;100.00;98638.34;5075884;28;20087;-80
2021/11/10 04:57:50;;;;;;;29.58;13.15;;;;;;;-0.05;100.00;98624.44;5077030;28;20558;-82
2021/11/10 05:00:17;;;;;;;47.80;18.73;;;;;;;0.04;100.00;98635.63;5077854;28;20290;-78
2021/11/10 05:02:43;;;;;;;24.58;12.10;;;;;;;-0.23;100.00;98624.44;5081197;28;20206;-79
2021/11/10 05:05:10;;;;;;;24.75;11.25;;;;;;;-0.25;100.00;98625.69;5065732;28;20048;-80
2021/11/10 05:07:37;;;;;;;21.10;11.65;;;;;;;-0.14;100.00;98636.44;5092745;28;20044;-81
2021/11/10 05:10:04;;;;;;;26.15;12.75;;;;;;;-0.15;100.00;98626.00;5081750;28;20053;-82
2021/11/10 05:12:31;;;;;;;24.83;11.80;;;;;;;-0.24;100.00;98627.34;5070830;28;20036;-80
2021/11/10 05:14:57;;;;;;;27.33;11.35;;;;;;;-0.36;100.00;98613.94;5080544;28;20055;-81
2021/11/10 05:17:25;;;;;;;22.90;11.23;;;;;;;-0.36;100.00;98619.25;5096299;28;20048;-81
2021/11/10 05:19:52;;;;;;;26.20;11.32;;;;;;;-0.37;100.00;98616.84;5100148;28;20048;-81
2021/11/10 05:22:36;;;;;;;32.90;12.50;;;;;;;-0.39;100.00;98619.72;5101734;28;20110;-81
2021/11/10 05:25:03;;;;;;;26.63;12.52;;;;;;;-0.31;100.00;98618.63;5101582;28;20117;-81
2021/11/10 05:27:29;;;;;;;27.10;12.93;;;;;;;-0.18;100.00;98624.59;5101563;28;20267;-81
2021/11/10 05:29:56;;;;;;;27.65;13.05;;;;;;;-0.31;100.00;98595.47;5101445;28;20044;-79
2021/11/10 05:32:22;;;;;;;78.35;22.33;;;;;;;-0.07;100.00;98623.03;5073272;28;20053;-80
2021/11/10 05:34:50;;;;;;;450.15;88.88;;;;;;;-0.12;100.00;98607.75;5090947;28;20063;-80
2021/11/10 05:37:18;;;;;;;206.35;45.50;;;;;;;-0.33;100.00;98613.50;5090785;28;20048;-82
2021/11/10 05:39:44;;;;;;;114.63;29.42;;;;;;;-0.37;100.00;98624.81;5074597;28;20059;-81
2021/11/10 05:42:11;;;;;;;37.35;16.58;;;;;;;-0.49;100.00;98608.75;5099560;28;20445;-82
2021/11/10 05:44:41;;;;;;;41.55;16.13;;;;;;;-0.37;100.00;98620.31;5099811;28;20044;-79
2021/11/10 05:47:09;;;;;;;54.03;19.83;;;;;;;-0.27;100.00;98609.97;5081869;28;20048;-79
2021/11/10 05:49:37;;;;;;;52.05;18.88;;;;;;;-0.22;100.00;98620.75;5099865;28;20126;-80
2021/11/10 05:52:05;;;;;;;44.08;16.58;;;;;;;-0.20;100.00;98623.19;5101355;28;20076;-80
2021/11/10 05:54:32;;;;;;;38.53;15.68;;;;;;;-0.12;100.00;98612.25;5084979;28;20063;-83
2021/11/10 05:56:59;;;;;;;33.38;15.95;;;;;;;-0.05;100.00;98626.28;5083707;28;20044;-81
2021/11/10 05:59:25;;;;;;;42.33;17.00;;;;;;;-0.24;100.00;98590.09;5083749;28;20048;-80
2021/11/10 06:01:52;;;;;;;34.75;15.13;;;;;;;-0.10;100.00;98623.47;5100313;28;20048;-84
2021/11/10 06:04:18;;;;;;;37.92;15.38;;;;;;;-0.04;100.00;98618.09;5102511;28;20062;-82
2021/11/10 06:06:45;;;;;;;38.50;15.88;;;;;;;0.33;100.00;98615.38;5101670;28;20048;-79
2021/11/10 06:09:11;;;;;;;33.90;15.02;;;;;;;-0.18;100.00;98567.94;5083449;28;20098;-80
2021/11/10 06:11:39;;;;;;;30.70;13.73;;;;;;;-0.21;100.00;98616.25;5084105;28;20081;-80
2021/11/10 06:14:06;;;;;;;31.63;13.27;;;;;;;-0.16;100.00;98624.38;5102927;28;20101;-81
2021/11/10 06:16:32;;;;;;;24.05;12.75;;;;;;;-0.36;100.00;98619.25;5083770;28;20048;-84
2021/11/10 06:18:59;;;;;;;29.08;12.50;;;;;;;-0.22;100.00;98627.94;5101750;28;20644;-84
2021/11/10 06:21:26;;;;;;;31.40;14.02;;;;;;;-0.32;100.00;98624.97;5100646;28;20091;-82
2021/11/10 06:23:53;;;;;;;28.38;13.27;;;;;;;-0.39;100.00;98614.41;5091945;28;20036;-83
2021/11/10 06:26:19;;;;;;;28.58;12.85;;;;;;;-0.35;100.00;98610.25;5059674;28;20052;-82
2021/11/10 06:28:46;;;;;;;30.45;14.25;;;;;;;-0.08;100.00;98634.75;5077684;28;20052;-80
2021/11/10 06:31:12;;;;;;;29.23;14.25;;;;;;;-0.07;100.00;98629.19;5059499;28;20087;-84
2021/11/10 06:33:40;;;;;;;33.13;14.70;;;;;;;0.12;100.00;98627.34;5077506;28;20415;-83
2021/11/10 06:36:06;;;;;;;29.33;14.15;;;;;;;0.08;100.00;98625.34;5078699;28;20419;-83
2021/11/10 06:38:38;;;;;;;31.48;13.80;;;;;;;0.06;100.00;98617.56;5060752;28;20554;-82
2021/11/10 06:41:05;;;;;;;29.73;13.65;;;;;;;0.19;100.00;98625.41;5060619;28;20063;-82
2021/11/10 06:43:32;;;;;;;27.85;13.55;;;;;;;0.25;100.00;98631.69;5091872;28;20150;-76
2021/11/10 06:45:58;;;;;;;28.15;13.23;;;;;;;0.29;100.00;98638.97;5086749;28;20053;-80
2021/11/10 06:48:25;;;;;;;25.77;12.88;;;;;;;0.19;100.00;98632.56;5061031;28;20117;-83
2021/11/10 06:50:52;;;;;;;27.65;13.23;;;;;;;0.32;100.00;98621.75;5075108;28;20137;-84
2021/11/10 06:53:19;;;;;;;27.02;12.60;;;;;;;0.40;100.00;98632.91;5056568;28;20052;-83
2021/11/10 06:55:45;;;;;;;44.95;16.02;;;;;;;0.44;100.00;98628.75;5075409;28;20052;-83
2021/11/10 06:58:12;;;;;;;51.08;17.25;;;;;;;0.58;100.00;98632.88;5076051;28;20045;-83
2021/11/10 07:00:38;;;;;;;63.28;20.20;;;;;;;0.62;100.00;98635.88;5059726;28;20117;-81
2021/11/10 07:03:06;;;;;;;62.22;19.17;;;;;;;0.60;100.00;98622.78;5077736;28;20072;-82
2021/11/10 07:05:33;;;;;;;60.30;19.83;;;;;;;0.66;100.00;98630.91;5059521;28;20048;-82
2021/11/10 07:08:00;;;;;;;64.70;20.85;;;;;;;0.66;100.00;98636.25;5080261;28;20102;-83
2021/11/10 07:10:26;;;;;;;65.18;30.15;;;;;;;0.70;100.00;98629.44;5079308;28;20044;-82
2021/11/10 07:12:53;;;;;;;58.10;24.08;;;;;;;0.95;100.00;98656.72;5078503;28;20298;-84
2021/11/10 07:15:19;;;;;;;50.45;20.42;;;;;;;0.97;100.00;98646.66;5076735;28;20048;-80
2021/11/10 07:17:46;;;;;;;61.22;23.30;;;;;;;1.12;100.00;98623.03;5059400;28;20052;-84
2021/11/10 07:20:12;;;;;;;50.35;19.52;;;;;;;1.30;100.00;98649.59;5076371;28;20056;-84
2021/11/10 07:22:39;;;;;;;54.35;22.13;;;;;;;1.39;100.00;98640.22;5076893;28;20451;-84
2021/11/10 07:25:07;;;;;;;47.90;19.80;;;;;;;1.32;100.00;98649.38;5076211;28;20074;-82
2021/11/10 07:27:34;;;;;;;48.33;19.48;;;;;;;1.51;100.00;98642.88;5076662;28;20109;-83
2021/11/10 07:30:05;;;;;;;46.10;18.52;;;;;;;1.62;100.00;98650.09;5058779;28;20052;-85
2021/11/10 07:32:32;;;;;;;48.92;18.00;;;;;;;1.46;100.00;98622.25;5075777;28;20044;-81
2021/11/10 07:34:59;;;;;;;44.42;18.00;;;;;;;1.73;100.00;98649.28;5059581;28;20063;-83
2021/11/10 07:37:25;;;;;;;45.78;17.77;;;;;;;1.32;100.00;98652.06;5076090;28;20422;-82
2021/11/10 07:39:52;;;;;;;47.35;17.75;;;;;;;1.50;100.00;98658.06;5075100;28;20048;-80
2021/11/10 07:42:18;;;;;;;42.50;17.48;;;;;;;1.56;100.00;98645.66;5058115;28;20045;-81
2021/11/10 07:44:45;;;;;;;44.83;18.80;;;;;;;1.75;100.00;98645.31;5075815;28;20071;-83
2021/11/10 07:47:16;;;;;;;49.42;18.15;;;;;;;1.76;100.00;98619.41;5074904;28;20044;-85
2021/11/10 07:49:44;;;;;;;48.47;18.17;;;;;;;2.23;100.00;98653.00;5057317;28;20078;-82
2021/11/10 07:52:12;;;;;;;44.97;17.63;;;;;;;2.43;100.00;98653.41;5057767;28;20048;-81
2021/11/10 07:54:39;;;;;;;46.60;17.40;;;;;;;2.48;100.00;98648.16;5058436;28;20082;-79
2021/11/10 07:57:06;;;;;;;44.22;17.05;;;;;;;2.71;100.00;98639.22;5077697;28;20070;-83
2021/11/10 07:59:33;;;;;;;48.17;17.92;;;;;;;2.71;100.00;98646.47;5057636;28;20048;-82
2021/11/10 08:02:01;;;;;;;52.13;20.30;;;;;;;3.11;100.00;98636.47;5080652;28;20053;-84
2021/11/10 08:04:27;;;;;;;43.90;17.90;;;;;;;3.63;100.00;98645.06;5058989;28;20117;-83
2021/11/10 08:06:54;;;;;;;44.67;19.00;;;;;;;3.63;100.00;98607.56;5076629;28;20052;-85
2021/11/10 08:09:21;;;;;;;44.65;17.70;;;;;;;3.77;100.00;98623.03;5061730;28;20106;-82
2021/11/10 08:11:47;;;;;;;47.85;18.83;;;;;;;3.77;100.00;98647.13;5071906;28;20059;-81
2021/11/10 08:14:14;;;;;;;44.85;18.63;;;;;;;4.18;100.00;98642.34;5064846;28;20048;-83
2021/11/10 08:16:40;;;;;;;50.03;20.30;;;;;;;4.72;100.00;98629.84;5062251;28;20110;-82
2021/11/10 08:19:07;;;;;;;71.20;26.10;;;;;;;5.29;100.00;98633.56;5079525;28;20060;-83
2021/11/10 08:21:34;;;;;;;61.83;24.30;;;;;;;5.60;100.00;98623.88;5060738;28;20114;-79
2021/11/10 08:24:02;;;;;;;55.92;21.67;;;;;;;5.63;100.00;98621.47;5060625;28;20094;-80
2021/11/10 08:26:28;;;;;;;48.78;20.15;;;;;;;5.89;100.00;98621.66;5078703;28;20049;-83
2021/11/10 08:28:55;;;;;;;48.95;21.13;;;;;;;5.71;100.00;98624.72;5079780;28;20064;-81
2021/11/10 08:31:22;;;;;;;46.53;19.20;;;;;;;5.90;100.00;98623.28;5079561;28;20044;-81
2021/11/10 08:33:48;;;;;;;41.28;18.45;;;;;;;5.78;100.00;98623.44;5060938;28;20041;-78
2021/11/10 08:36:15;;;;;;;39.67;17.70;;;;;;;5.49;100.00;98628.38;5079072;28;20053;-83
2021/11/10 08:38:41;;;;;;;35.92;17.35;;;;;;;5.50;100.00;98599.63;5078819;28;20049;-81
2021/11/10 08:41:08;;;;;;;37.83;16.65;;;;;;;5.52;100.00;98605.56;5061325;28;20053;-81
2021/11/10 08:43:35;;;;;;;41.38;17.38;;;;;;;5.93;100.00;98622.78;5079074;28;20121;-82
2021/11/10 08:46:01;;;;;;;35.95;16.27;;;;;;;5.89;100.00;98627.03;5077396;28;20049;-80
2021/11/10 08:48:28;;;;;;;31.48;16.38;;;;;;;5.94;100.00;98606.38;5073846;28;20076;-80
2021/11/10 08:50:56;;;;;;;37.20;15.32;;;;;;;6.07;100.00;98634.66;5057010;28;20045;-81
2021/11/10 08:53:23;;;;;;;35.05;15.45;;;;;;;6.40;100.00;98622.72;5075954;28;20048;-82
2021/11/10 08:55:53;;;;;;;33.70;14.77;;;;;;;6.52;100.00;98629.50;5078498;28;20627;-84
2021/11/10 08:58:20;;;;;;;27.13;14.45;;;;;;;6.78;100.00;98623.09;5061737;28;20051;-83
2021/11/10 09:00:47;;;;;;;29.45;14.50;;;;;;;7.34;100.00;98633.94;5065073;28;20079;-83
2021/11/10 09:03:15;;;;;;;31.10;14.52;;;;;;;7.84;100.00;98627.69;5065229;28;20113;-80
2021/11/10 09:05:42;;;;;;;28.73;13.70;;;;;;;7.95;100.00;98635.47;5081136;28;20052;-83
2021/11/10 09:08:09;;;;;;;24.60;12.35;;;;;;;8.20;100.00;98631.09;5080809;28;20055;-79
2021/11/10 09:10:36;;;;;;;24.58;12.18;;;;;;;8.26;100.00;98624.63;5063480;28;20052;-80
2021/11/10 09:13:03;;;;;;;22.08;12.20;;;;;;;8.92;100.00;98622.41;5063928;28;20074;-82
2021/11/10 09:15:32;;;;;;;22.40;12.57;;;;;;;9.83;100.00;98623.28;5062243;28;20059;-81
2021/11/10 09:18:01;;;;;;;25.23;12.77;;;;;;;10.47;100.00;98593.13;5061911;28;20071;-82
2021/11/10 09:20:29;;;;;;;26.45;11.40;;;;;;;11.16;100.00;98611.34;5093335;23;20569;-81
2021/11/10 09:22:58;;;;;;;21.08;11.57;;;;;;;12.33;100.00;98612.84;5079042;28;20040;-81
2021/11/10 09:25:27;;;;;;;21.63;10.43;;;;;;;12.45;100.00;98603.09;5097762;28;20165;-79
2021/11/10 09:27:55;;;;;;;25.13;10.15;;;;;;;12.94;94.52;98599.56;5097914;28;20075;-81
2021/11/10 09:30:23;;;;;;;24.60;10.10;;;;;;;13.87;74.68;98599.78;5098331;28;20052;-80
2021/11/10 09:32:52;;;;;;;16.13;9.32;;;;;;;15.18;70.92;98590.50;5096873;28;20063;-80
2021/11/10 09:35:21;;;;;;;15.77;8.40;;;;;;;16.01;63.06;98587.19;5096639;28;20052;-81
2021/11/10 09:37:49;;;;;;;17.83;8.68;;;;;;;15.71;60.35;98592.91;5097252;28;20047;-81
2021/11/10 09:40:19;;;;;;;13.05;7.88;;;;;;;15.68;56.00;98588.09;5081242;28;20492;-82
2021/11/10 09:42:46;;;;;;;17.77;8.70;;;;;;;16.00;57.65;98593.00;5099905;28;20417;-80
2021/11/10 09:45:17;;;;;;;15.05;7.90;;;;;;;16.02;58.16;98585.25;5081455;28;20101;-81
2021/11/10 09:47:44;;;;;;;18.65;8.40;;;;;;;16.06;57.21;98586.19;5080962;28;20101;-80
2021/11/10 09:50:14;;;;;;;14.55;7.78;;;;;;;14.98;57.66;98572.88;5099824;28;20052;-81
2021/11/10 09:52:41;;;;;;;19.00;7.50;;;;;;;15.48;58.11;98567.75;5098036;28;20052;-81
2021/11/10 09:55:09;;;;;;;13.68;7.10;;;;;;;15.33;56.95;98579.13;5098172;28;20070;-82
2021/11/10 09:57:36;;;;;;;14.98;8.05;;;;;;;15.60;57.95;98573.34;5099189;28;20052;-81
2021/11/10 10:00:14;;;;;;;17.02;7.93;;;;;;;15.68;55.75;98577.16;5103544;28;20067;-80
2021/11/10 10:02:44;;;;;;;13.30;7.55;;;;;;;15.24;58.36;98579.13;5097202;28;20052;-81
2021/11/10 10:05:13;;;;;;;15.10;7.85;;;;;;;14.67;62.35;98574.91;5096672;28;20048;-82
2021/11/10 10:07:41;;;;;;;18.60;7.97;;;;;;;13.84;64.43;98573.97;5096930;28;20510;-82
2021/11/10 10:10:08;;;;;;;13.40;7.50;;;;;;;13.97;64.63;98572.28;5077679;28;20043;-81
2021/11/10 10:12:35;;;;;;;15.07;8.05;;;;;;;12.68;72.10;98565.91;5097038;28;20107;-82
2021/11/10 10:15:03;;;;;;;16.23;8.43;;;;;;;12.69;82.63;98569.44;5078413;28;20055;-81
2021/11/10 10:17:40;;;;;;;17.50;8.63;;;;;;;12.40;87.25;98586.09;5096923;28;20044;-81
2021/11/10 10:20:20;;;;;;;16.48;8.38;;;;;;;11.84;100.00;98595.31;5080345;28;20132;-80
2021/11/10 10:22:48;;;;;;;17.48;9.13;;;;;;;11.48;100.00;98585.38;5093477;28;20060;-79
2021/11/10 10:25:14;;;;;;;17.38;8.88;;;;;;;11.06;100.00;98580.91;5094796;28;20446;-80
2021/11/10 10:27:53;;;;;;;18.42;9.40;;;;;;;10.02;100.00;98590.91;5095636;28;20060;-80
2021/11/10 10:30:38;;;;;;;20.35;9.27;;;;;;;9.93;100.00;98596.16;5078031;28;20410;-80
2021/11/10 10:33:11;;;;;;;19.95;10.07;;;;;;;9.62;100.00;98594.84;5097091;28;20548;-81
2021/11/10 10:35:43;;;;;;;19.45;9.98;;;;;;;9.89;100.00;98599.69;5080257;28;20052;-81
2021/11/10 10:38:14;;;;;;;18.17;9.25;;;;;;;10.36;100.00;98583.50;5079799;28;20117;-80
2021/11/10 10:40:43;;;;;;;17.92;9.68;;;;;;;10.43;100.00;98589.34;5098163;28;20116;-81
2021/11/10 10:43:11;;;;;;;22.98;9.82;;;;;;;10.55;100.00;98584.34;5098286;28;20044;-80
2021/11/10 10:45:44;;;;;;;19.20;8.88;;;;;;;10.85;100.00;98585.81;5097772;28;20048;-80
2021/11/10 10:48:15;;;;;;;20.52;9.30;;;;;;;11.03;100.00;98585.00;5097560;28;20101;-80
2021/11/10 10:50:45;;;;;;;16.63;9.10;;;;;;;10.93;100.00;98582.44;5078527;28;20048;-80
2021/11/10 10:53:14;;;;;;;24.50;9.90;;;;;;;10.90;100.00;98576.78;5097474;28;20269;-80
2021/11/10 10:55:45;;;;;;;20.05;9.63;;;;;;;10.47;100.00;98590.41;5097868;28;20067;-81
2021/11/10 10:58:30;;;;;;;19.23;9.60;;;;;;;10.78;100.00;98576.44;5079399;28;20101;-80
2021/11/10 11:00:58;;;;;;;21.25;9.88;;;;;;;10.73;100.00;98600.88;5097877;28;20060;-80
2021/11/10 11:03:27;;;;;;;17.48;9.50;;;;;;;11.27;100.00;98590.31;5078930;28;20131;-80
2021/11/10 11:05:54;;;;;;;19.48;9.70;;;;;;;11.04;100.00;98583.91;5097577;28;20055;-80
2021/11/10 11:08:35;;;;;;;18.92;8.93;;;;;;;10.93;100.00;98592.47;5097269;28;20106;-81
2021/11/10 11:11:35;;;;;;;19.67;10.35;;;;;;;10.33;100.00;98570.53;5097836;28;20048;-82
2021/11/10 11:14:03;;;;;;;18.83;9.63;;;;;;;11.05;100.00;98571.94;5099913;28;20044;-80
2021/11/10 11:16:40;;;;;;;16.05;9.25;;;;;;;11.49;100.00;98571.50;5096222;28;20043;-80
2021/11/10 11:19:19;;;;;;;16.52;9.40;;;;;;;11.65;100.00;98569.31;5096890;28;20545;-79
2021/11/10 11:21:53;;;;;;;19.50;10.50;;;;;;;11.70;100.00;98580.94;5077813;28;20048;-80